sensor_id;sensor_type;location;lat;lon;timestamp;pressure;altitude;pressure_sealevel;temperature;humidity
33697;BME280;20031;43.416;23.232;2024-01-30T00:01:41;102491.31;;;2.67;68.32
33697;BME280;20031;43.416;23.232;2024-01-30T00:04:06;102489.56;;;2.67;68.69
33697;BME280;20031;43.416;23.232;2024-01-30T00:06:32;102496.41;;;2.68;68.25
33697;BME280;20031;43.416;23.232;2024-01-30T00:08:57;102492.09;;;2.69;68.01
33697;BME280;20031;43.416;23.232;2024-01-30T00:11:23;102491.31;;;2.67;67.75
33697;BME280;20031;43.416;23.232;2024-01-30T00:13:51;102489.63;;;2.66;68.25
33697;BME280;20031;43.416;23.232;2024-01-30T00:16:21;102502.47;;;2.66;67.80
33697;BME280;20031;43.416;23.232;2024-01-30T00:18:47;102500.72;;;2.68;68.27
33697;BME280;20031;43.416;23.232;2024-01-30T00:21:12;102490.44;;;2.68;68.03
33697;BME280;20031;43.416;23.232;2024-01-30T00:23:38;102490.44;;;2.68;67.96
33697;BME280;20031;43.416;23.232;2024-01-30T00:26:03;102493.13;;;2.63;68.16
33697;BME280;20031;43.416;23.232;2024-01-30T00:28:30;102500.84;;;2.63;68.23
33697;BME280;20031;43.416;23.232;2024-01-30T00:30:55;102500.84;;;2.63;68.91
33697;BME280;20031;43.416;23.232;2024-01-30T00:33:21;102503.41;;;2.63;68.30
33697;BME280;20031;43.416;23.232;2024-01-30T00:35:47;102493.06;;;2.66;68.80
33697;BME280;20031;43.416;23.232;2024-01-30T00:38:12;102501.75;;;2.62;68.15
33697;BME280;20031;43.416;23.232;2024-01-30T00:40:38;102494.13;;;2.59;68.22
33697;BME280;20031;43.416;23.232;2024-01-30T00:43:03;102498.19;;;2.66;68.41
33697;BME280;20031;43.416;23.232;2024-01-30T00:45:29;102500.78;;;2.66;68.38
33697;BME280;20031;43.416;23.232;2024-01-30T00:47:54;102498.25;;;2.65;68.43
33697;BME280;20031;43.416;23.232;2024-01-30T00:50:19;102498.38;;;2.60;68.59
33697;BME280;20031;43.416;23.232;2024-01-30T00:52:45;102496.00;;;2.54;68.32
33697;BME280;20031;43.416;23.232;2024-01-30T00:55:10;102506.28;;;2.54;68.83
33697;BME280;20031;43.416;23.232;2024-01-30T00:57:36;102491.84;;;2.51;68.82
33697;BME280;20031;43.416;23.232;2024-01-30T01:00:02;102492.66;;;2.53;68.69
33697;BME280;20031;43.416;23.232;2024-01-30T01:02:28;102489.25;;;2.51;68.41
33697;BME280;20031;43.416;23.232;2024-01-30T01:04:54;102482.69;;;2.42;68.48
33697;BME280;20031;43.416;23.232;2024-01-30T01:07:19;102482.66;;;2.44;68.57
33697;BME280;20031;43.416;23.232;2024-01-30T01:09:45;102490.84;;;2.54;69.11
33697;BME280;20031;43.416;23.232;2024-01-30T01:12:10;102486.47;;;2.58;68.60
33697;BME280;20031;43.416;23.232;2024-01-30T01:14:35;102489.00;;;2.59;68.83
33697;BME280;20031;43.416;23.232;2024-01-30T01:17:01;102487.19;;;2.61;69.12
33697;BME280;20031;43.416;23.232;2024-01-30T01:19:27;102492.34;;;2.61;68.75
33697;BME280;20031;43.416;23.232;2024-01-30T01:21:52;102487.97;;;2.63;68.96
33697;BME280;20031;43.416;23.232;2024-01-30T01:24:18;102487.16;;;2.63;68.93
33697;BME280;20031;43.416;23.232;2024-01-30T01:26:44;102490.66;;;2.60;68.77
33697;BME280;20031;43.416;23.232;2024-01-30T01:29:09;102485.63;;;2.57;68.07
33697;BME280;20031;43.416;23.232;2024-01-30T01:31:37;102486.56;;;2.55;68.54
33697;BME280;20031;43.416;23.232;2024-01-30T01:34:12;102489.09;;;2.56;68.35
33697;BME280;20031;43.416;23.232;2024-01-30T01:36:38;102492.44;;;2.58;68.14
33697;BME280;20031;43.416;23.232;2024-01-30T01:39:04;102486.53;;;2.56;68.19
33697;BME280;20031;43.416;23.232;2024-01-30T01:41:33;102485.63;;;2.57;68.18
33697;BME280;20031;43.416;23.232;2024-01-30T01:43:59;102489.94;;;2.57;68.09
33697;BME280;20031;43.416;23.232;2024-01-30T01:46:30;102481.34;;;2.58;68.40
33697;BME280;20031;43.416;23.232;2024-01-30T01:48:57;102485.47;;;2.62;68.27
33697;BME280;20031;43.416;23.232;2024-01-30T01:51:24;102479.44;;;2.63;68.19
33697;BME280;20031;43.416;23.232;2024-01-30T01:53:56;102483.69;;;2.64;68.47
33697;BME280;20031;43.416;23.232;2024-01-30T01:56:26;102481.91;;;2.66;68.52
33697;BME280;20031;43.416;23.232;2024-01-30T01:58:54;102487.84;;;2.68;68.80
33697;BME280;20031;43.416;23.232;2024-01-30T02:01:20;102485.25;;;2.69;68.75
33697;BME280;20031;43.416;23.232;2024-01-30T02:03:46;102485.19;;;2.71;68.47
33697;BME280;20031;43.416;23.232;2024-01-30T02:06:13;102483.44;;;2.71;68.70
33697;BME280;20031;43.416;23.232;2024-01-30T02:08:39;102485.13;;;2.72;68.76
33697;BME280;20031;43.416;23.232;2024-01-30T02:11:04;102485.13;;;2.72;68.36
33697;BME280;20031;43.416;23.232;2024-01-30T02:13:30;102487.59;;;2.75;68.74
33697;BME280;20031;43.416;23.232;2024-01-30T02:15:55;102485.97;;;2.73;68.73
33697;BME280;20031;43.416;23.232;2024-01-30T02:18:21;102483.53;;;2.68;68.38
33697;BME280;20031;43.416;23.232;2024-01-30T02:20:47;102479.38;;;2.64;69.08
33697;BME280;20031;43.416;23.232;2024-01-30T02:23:13;102478.50;;;2.65;69.11
33697;BME280;20031;43.416;23.232;2024-01-30T02:25:42;102483.50;;;2.70;69.14
33697;BME280;20031;43.416;23.232;2024-01-30T02:28:15;102486.00;;;2.71;69.49
33697;BME280;20031;43.416;23.232;2024-01-30T02:30:43;102478.28;;;2.71;69.58
33697;BME280;20031;43.416;23.232;2024-01-30T02:33:08;102476.66;;;2.69;69.78
33697;BME280;20031;43.416;23.232;2024-01-30T02:35:34;102469.81;;;2.69;70.43
33697;BME280;20031;43.416;23.232;2024-01-30T02:38:00;102467.28;;;2.68;70.03
33697;BME280;20031;43.416;23.232;2024-01-30T02:40:25;102469.91;;;2.66;70.60
33697;BME280;20031;43.416;23.232;2024-01-30T02:42:51;102468.13;;;2.68;70.95
33697;BME280;20031;43.416;23.232;2024-01-30T02:45:17;102470.69;;;2.68;70.81
33697;BME280;20031;43.416;23.232;2024-01-30T02:47:42;102467.28;;;2.68;71.17
33697;BME280;20031;43.416;23.232;2024-01-30T02:50:08;102474.19;;;2.66;70.96
33697;BME280;20031;43.416;23.232;2024-01-30T02:52:34;102467.47;;;2.62;71.72
33697;BME280;20031;43.416;23.232;2024-01-30T02:54:59;102474.34;;;2.61;71.41
33697;BME280;20031;43.416;23.232;2024-01-30T02:57:25;102465.00;;;2.59;71.66
33697;BME280;20031;43.416;23.232;2024-01-30T02:59:51;102467.56;;;2.59;72.01
33697;BME280;20031;43.416;23.232;2024-01-30T03:02:16;102474.50;;;2.57;71.93
33697;BME280;20031;43.416;23.232;2024-01-30T03:04:42;102474.66;;;2.53;71.92
33697;BME280;20031;43.416;23.232;2024-01-30T03:07:07;102473.84;;;2.51;72.19
33697;BME280;20031;43.416;23.232;2024-01-30T03:09:33;102468.94;;;2.43;72.28
33697;BME280;20031;43.416;23.232;2024-01-30T03:11:58;102473.50;;;2.35;72.17
33697;BME280;20031;43.416;23.232;2024-01-30T03:14:24;102480.50;;;2.30;71.81
33697;BME280;20031;43.416;23.232;2024-01-30T03:16:49;102473.72;;;2.28;72.04
33697;BME280;20031;43.416;23.232;2024-01-30T03:19:15;102466.13;;;2.25;72.38
33697;BME280;20031;43.416;23.232;2024-01-30T03:21:40;102472.31;;;2.18;72.20
33697;BME280;20031;43.416;23.232;2024-01-30T03:24:06;102466.59;;;2.10;72.48
33697;BME280;20031;43.416;23.232;2024-01-30T03:26:31;102472.72;;;2.06;72.55
33697;BME280;20031;43.416;23.232;2024-01-30T03:28:57;102471.13;;;2.02;73.05
33697;BME280;20031;43.416;23.232;2024-01-30T03:31:22;102466.13;;;1.98;73.26
33697;BME280;20031;43.416;23.232;2024-01-30T03:33:48;102464.66;;;1.89;72.85
33697;BME280;20031;43.416;23.232;2024-01-30T03:36:15;102469.91;;;1.86;73.38
33697;BME280;20031;43.416;23.232;2024-01-30T03:38:41;102465.88;;;1.78;73.58
33697;BME280;20031;43.416;23.232;2024-01-30T03:41:09;102463.34;;;1.76;73.86
33697;BME280;20031;43.416;23.232;2024-01-30T03:43:35;102464.25;;;1.74;73.48
33697;BME280;20031;43.416;23.232;2024-01-30T03:46:02;102463.53;;;1.70;73.80
33697;BME280;20031;43.416;23.232;2024-01-30T03:48:28;102463.66;;;1.66;74.35
33697;BME280;20031;43.416;23.232;2024-01-30T03:50:54;102468.88;;;1.63;74.26
33697;BME280;20031;43.416;23.232;2024-01-30T03:53:19;102459.72;;;1.54;74.30
33697;BME280;20031;43.416;23.232;2024-01-30T03:55:44;102459.88;;;1.49;74.33
33697;BME280;20031;43.416;23.232;2024-01-30T03:58:10;102471.13;;;1.45;74.69
33697;BME280;20031;43.416;23.232;2024-01-30T04:00:35;102475.44;;;1.43;74.86
33697;BME280;20031;43.416;23.232;2024-01-30T04:03:01;102470.41;;;1.40;74.85
33697;BME280;20031;43.416;23.232;2024-01-30T04:05:26;102467.13;;;1.35;74.50
33697;BME280;20031;43.416;23.232;2024-01-30T04:07:52;102461.34;;;1.27;74.51
33697;BME280;20031;43.416;23.232;2024-01-30T04:10:17;102472.56;;;1.23;74.71
33697;BME280;20031;43.416;23.232;2024-01-30T04:12:43;102465.06;;;1.17;74.79
33697;BME280;20031;43.416;23.232;2024-01-30T04:15:08;102468.53;;;1.14;75.20
33697;BME280;20031;43.416;23.232;2024-01-30T04:17:34;102477.19;;;1.12;75.37
33697;BME280;20031;43.416;23.232;2024-01-30T04:19:59;102480.78;;;1.05;74.76
33697;BME280;20031;43.416;23.232;2024-01-30T04:22:25;102479.38;;;0.94;74.59
33697;BME280;20031;43.416;23.232;2024-01-30T04:24:50;102489.91;;;0.82;75.25
33697;BME280;20031;43.416;23.232;2024-01-30T04:27:16;102478.09;;;0.76;75.15
33697;BME280;20031;43.416;23.232;2024-01-30T04:29:41;102482.59;;;0.68;74.95
33697;BME280;20031;43.416;23.232;2024-01-30T04:32:07;102486.78;;;0.71;75.96
33697;BME280;20031;43.416;23.232;2024-01-30T04:34:32;102486.81;;;0.69;75.76
33697;BME280;20031;43.416;23.232;2024-01-30T04:36:57;102474.06;;;0.66;76.02
33697;BME280;20031;43.416;23.232;2024-01-30T04:39:23;102486.25;;;0.58;76.12
33697;BME280;20031;43.416;23.232;2024-01-30T04:41:48;102493.41;;;0.45;75.20
33697;BME280;20031;43.416;23.232;2024-01-30T04:44:14;102496.19;;;0.36;76.11
33697;BME280;20031;43.416;23.232;2024-01-30T04:46:39;102497.22;;;0.29;75.92
33697;BME280;20031;43.416;23.232;2024-01-30T04:49:05;102495.47;;;0.29;76.37
33697;BME280;20031;43.416;23.232;2024-01-30T04:51:33;102496.31;;;0.30;76.36
33697;BME280;20031;43.416;23.232;2024-01-30T04:53:58;102500.72;;;0.25;76.47
33697;BME280;20031;43.416;23.232;2024-01-30T04:56:24;102499.16;;;0.18;76.87
33697;BME280;20031;43.416;23.232;2024-01-30T04:58:49;102494.97;;;0.14;76.59
33697;BME280;20031;43.416;23.232;2024-01-30T05:01:18;102497.53;;;0.14;76.75
33697;BME280;20031;43.416;23.232;2024-01-30T05:03:44;102500.25;;;0.08;76.76
33697;BME280;20031;43.416;23.232;2024-01-30T05:06:09;102504.50;;;0.09;77.28
33697;BME280;20031;43.416;23.232;2024-01-30T05:08:35;102501.94;;;0.09;77.29
33697;BME280;20031;43.416;23.232;2024-01-30T05:11:05;102507.16;;;0.04;77.09
33697;BME280;20031;43.416;23.232;2024-01-30T05:13:31;102507.19;;;0.03;77.17
33697;BME280;20031;43.416;23.232;2024-01-30T05:15:56;102508.81;;;0.05;77.79
33697;BME280;20031;43.416;23.232;2024-01-30T05:18:22;102507.13;;;0.06;77.96
33697;BME280;20031;43.416;23.232;2024-01-30T05:20:49;102506.19;;;0.08;78.48
33697;BME280;20031;43.416;23.232;2024-01-30T05:23:15;102509.63;;;0.09;77.90
33697;BME280;20031;43.416;23.232;2024-01-30T05:25:40;102506.16;;;0.10;78.39
33697;BME280;20031;43.416;23.232;2024-01-30T05:28:06;102504.50;;;0.09;78.49
33697;BME280;20031;43.416;23.232;2024-01-30T05:30:31;102508.75;;;0.08;78.18
33697;BME280;20031;43.416;23.232;2024-01-30T05:32:56;102512.16;;;0.10;78.50
33697;BME280;20031;43.416;23.232;2024-01-30T05:35:22;102512.19;;;0.09;78.46
33697;BME280;20031;43.416;23.232;2024-01-30T05:37:48;102518.16;;;0.08;78.14
33697;BME280;20031;43.416;23.232;2024-01-30T05:40:14;102512.19;;;0.09;78.25
33697;BME280;20031;43.416;23.232;2024-01-30T05:42:40;102507.00;;;0.12;78.46
33697;BME280;20031;43.416;23.232;2024-01-30T05:45:05;102509.47;;;0.15;78.63
33697;BME280;20031;43.416;23.232;2024-01-30T05:47:31;102511.97;;;0.18;78.79
33697;BME280;20031;43.416;23.232;2024-01-30T05:49:56;102511.13;;;0.17;78.80
33697;BME280;20031;43.416;23.232;2024-01-30T05:52:22;102508.69;;;0.13;78.28
33697;BME280;20031;43.416;23.232;2024-01-30T05:54:47;102514.56;;;0.16;78.40
33697;BME280;20031;43.416;23.232;2024-01-30T05:57:13;102517.03;;;0.21;78.68
33697;BME280;20031;43.416;23.232;2024-01-30T05:59:38;102508.50;;;0.20;78.42
33697;BME280;20031;43.416;23.232;2024-01-30T06:02:03;102519.47;;;0.25;79.12
33697;BME280;20031;43.416;23.232;2024-01-30T06:04:29;102516.00;;;0.28;78.48
33697;BME280;20031;43.416;23.232;2024-01-30T06:06:54;102521.19;;;0.26;78.80
33697;BME280;20031;43.416;23.232;2024-01-30T06:09:20;102515.06;;;0.32;78.92
33697;BME280;20031;43.416;23.232;2024-01-30T06:11:46;102520.09;;;0.36;78.50
33697;BME280;20031;43.416;23.232;2024-01-30T06:14:11;102515.00;;;0.35;78.20
33697;BME280;20031;43.416;23.232;2024-01-30T06:16:37;102524.38;;;0.36;78.78
33697;BME280;20031;43.416;23.232;2024-01-30T06:19:02;102525.03;;;0.44;78.53
33697;BME280;20031;43.416;23.232;2024-01-30T06:21:27;102519.75;;;0.49;78.50
33697;BME280;20031;43.416;23.232;2024-01-30T06:23:53;102521.34;;;0.55;78.93
33697;BME280;20031;43.416;23.232;2024-01-30T06:26:18;102516.03;;;0.64;78.52
33697;BME280;20031;43.416;23.232;2024-01-30T06:28:44;102514.19;;;0.69;78.81
33697;BME280;20031;43.416;23.232;2024-01-30T06:31:09;102518.59;;;0.64;78.65
33697;BME280;20031;43.416;23.232;2024-01-30T06:33:35;102516.00;;;0.65;78.51
33697;BME280;20031;43.416;23.232;2024-01-30T06:36:00;102515.88;;;0.70;78.62
33697;BME280;20031;43.416;23.232;2024-01-30T06:38:26;102524.16;;;0.79;78.71
33697;BME280;20031;43.416;23.232;2024-01-30T06:40:51;102520.66;;;0.83;78.35
33697;BME280;20031;43.416;23.232;2024-01-30T06:43:16;102529.91;;;0.89;77.90
33697;BME280;20031;43.416;23.232;2024-01-30T06:45:42;102527.03;;;1.02;78.45
33697;BME280;20031;43.416;23.232;2024-01-30T06:48:08;102526.72;;;1.14;78.00
33697;BME280;20031;43.416;23.232;2024-01-30T06:50:33;102534.84;;;1.29;78.14
33697;BME280;20031;43.416;23.232;2024-01-30T06:52:59;102533.81;;;1.36;77.29
33697;BME280;20031;43.416;23.232;2024-01-30T06:55:24;102528.72;;;1.35;77.08
33697;BME280;20031;43.416;23.232;2024-01-30T06:57:49;102532.16;;;1.34;77.10
33697;BME280;20031;43.416;23.232;2024-01-30T07:00:15;102530.50;;;1.31;77.33
33697;BME280;20031;43.416;23.232;2024-01-30T07:02:41;102535.47;;;1.37;77.42
33697;BME280;20031;43.416;23.232;2024-01-30T07:05:07;102537.09;;;1.71;77.64
33697;BME280;20031;43.416;23.232;2024-01-30T07:07:32;102536.84;;;1.80;77.15
33697;BME280;20031;43.416;23.232;2024-01-30T07:09:58;102541.06;;;1.83;76.75
33697;BME280;20031;43.416;23.232;2024-01-30T07:12:23;102540.94;;;1.87;76.65
33697;BME280;20031;43.416;23.232;2024-01-30T07:14:51;102550.31;;;1.88;76.19
33697;BME280;20031;43.416;23.232;2024-01-30T07:17:16;102540.75;;;1.93;76.19
33697;BME280;20031;43.416;23.232;2024-01-30T07:19:42;102548.50;;;1.92;75.53
33697;BME280;20031;43.416;23.232;2024-01-30T07:22:08;102543.66;;;1.81;75.08
33697;BME280;20031;43.416;23.232;2024-01-30T07:24:33;102546.06;;;1.87;75.43
33697;BME280;20031;43.416;23.232;2024-01-30T07:26:59;102551.03;;;1.93;75.32
33697;BME280;20031;43.416;23.232;2024-01-30T07:29:25;102552.44;;;2.03;74.96
33697;BME280;20031;43.416;23.232;2024-01-30T07:31:50;102544.66;;;2.06;74.97
33697;BME280;20031;43.416;23.232;2024-01-30T07:34:15;102549.84;;;2.04;74.58
33697;BME280;20031;43.416;23.232;2024-01-30T07:36:41;102547.31;;;2.03;74.23
33697;BME280;20031;43.416;23.232;2024-01-30T07:39:07;102554.69;;;2.13;74.20
33697;BME280;20031;43.416;23.232;2024-01-30T07:41:32;102545.09;;;2.20;74.92
33697;BME280;20031;43.416;23.232;2024-01-30T07:43:58;102556.66;;;2.34;74.92
33697;BME280;20031;43.416;23.232;2024-01-30T07:46:23;102555.53;;;2.43;74.57
33697;BME280;20031;43.416;23.232;2024-01-30T07:48:49;102550.44;;;2.41;73.89
33697;BME280;20031;43.416;23.232;2024-01-30T07:51:14;102547.13;;;2.63;75.15
33697;BME280;20031;43.416;23.232;2024-01-30T07:53:40;102550.22;;;2.74;73.78
33697;BME280;20031;43.416;23.232;2024-01-30T07:56:07;102550.25;;;2.73;74.04
33697;BME280;20031;43.416;23.232;2024-01-30T07:58:32;102547.38;;;2.82;74.55
33697;BME280;20031;43.416;23.232;2024-01-30T08:00:58;102552.13;;;2.95;74.11
33697;BME280;20031;43.416;23.232;2024-01-30T08:03:24;102550.22;;;3.00;73.39
33697;BME280;20031;43.416;23.232;2024-01-30T08:05:49;102541.50;;;3.04;73.40
33697;BME280;20031;43.416;23.232;2024-01-30T08:08:15;102544.69;;;2.86;73.17
33697;BME280;20031;43.416;23.232;2024-01-30T08:10:40;102558.75;;;2.76;72.81
33697;BME280;20031;43.416;23.232;2024-01-30T08:13:06;102556.66;;;2.87;73.83
33697;BME280;20031;43.416;23.232;2024-01-30T08:15:31;102545.28;;;2.94;73.55
33697;BME280;20031;43.416;23.232;2024-01-30T08:17:57;102555.50;;;3.21;73.94
33697;BME280;20031;43.416;23.232;2024-01-30T08:20:24;102552.47;;;3.35;73.75
33697;BME280;20031;43.416;23.232;2024-01-30T08:22:50;102550.66;;;3.37;72.23
33697;BME280;20031;43.416;23.232;2024-01-30T08:25:16;102554.50;;;3.50;72.78
33697;BME280;20031;43.416;23.232;2024-01-30T08:27:41;102551.19;;;3.70;72.50
33697;BME280;20031;43.416;23.232;2024-01-30T08:30:07;102550.59;;;3.87;71.83
33697;BME280;20031;43.416;23.232;2024-01-30T08:32:33;102555.34;;;3.97;71.09
33697;BME280;20031;43.416;23.232;2024-01-30T08:34:59;102552.19;;;4.12;71.01
33697;BME280;20031;43.416;23.232;2024-01-30T08:37:25;102555.34;;;4.20;70.17
33697;BME280;20031;43.416;23.232;2024-01-30T08:39:50;102551.06;;;3.96;68.59
33697;BME280;20031;43.416;23.232;2024-01-30T08:42:16;102540.41;;;4.05;69.58
33697;BME280;20031;43.416;23.232;2024-01-30T08:44:43;102546.09;;;4.36;69.34
33697;BME280;20031;43.416;23.232;2024-01-30T08:47:09;102537.00;;;4.49;69.13
33697;BME280;20031;43.416;23.232;2024-01-30T08:49:34;102543.59;;;4.77;68.71
33697;BME280;20031;43.416;23.232;2024-01-30T08:52:00;102546.41;;;4.92;67.86
33697;BME280;20031;43.416;23.232;2024-01-30T08:54:25;102547.06;;;5.37;67.94
33697;BME280;20031;43.416;23.232;2024-01-30T08:56:51;102551.19;;;5.41;66.40
33697;BME280;20031;43.416;23.232;2024-01-30T08:59:18;102544.53;;;5.75;66.50
33697;BME280;20031;43.416;23.232;2024-01-30T09:01:44;102546.13;;;5.97;64.63
33697;BME280;20031;43.416;23.232;2024-01-30T09:04:09;102541.59;;;6.20;64.74
33697;BME280;20031;43.416;23.232;2024-01-30T09:06:35;102536.28;;;6.58;63.69
33697;BME280;20031;43.416;23.232;2024-01-30T09:09:00;102539.81;;;6.39;61.69
33697;BME280;20031;43.416;23.232;2024-01-30T09:11:26;102538.69;;;6.45;61.30
33697;BME280;20031;43.416;23.232;2024-01-30T09:13:51;102536.16;;;6.61;60.54
33697;BME280;20031;43.416;23.232;2024-01-30T09:16:17;102539.88;;;6.91;59.64
33697;BME280;20031;43.416;23.232;2024-01-30T09:18:42;102535.34;;;6.95;58.69
33697;BME280;20031;43.416;23.232;2024-01-30T09:21:07;102526.47;;;7.17;59.61
33697;BME280;20031;43.416;23.232;2024-01-30T09:23:33;102529.25;;;7.29;56.41
33697;BME280;20031;43.416;23.232;2024-01-30T09:25:59;102530.41;;;7.24;57.21
33697;BME280;20031;43.416;23.232;2024-01-30T09:28:24;102529.94;;;7.33;56.15
33697;BME280;20031;43.416;23.232;2024-01-30T09:30:50;102515.41;;;7.62;55.75
33697;BME280;20031;43.416;23.232;2024-01-30T09:33:15;102522.78;;;7.70;53.99
33697;BME280;20031;43.416;23.232;2024-01-30T09:35:41;102521.53;;;7.77;53.31
33697;BME280;20031;43.416;23.232;2024-01-30T09:38:06;102514.13;;;7.86;53.54
33697;BME280;20031;43.416;23.232;2024-01-30T09:40:32;102510.53;;;8.04;52.71
33697;BME280;20031;43.416;23.232;2024-01-30T09:42:58;102503.88;;;8.31;51.73
33697;BME280;20031;43.416;23.232;2024-01-30T09:45:27;102505.03;;;8.25;50.27
33697;BME280;20031;43.416;23.232;2024-01-30T09:47:53;102507.97;;;8.19;50.11
33697;BME280;20031;43.416;23.232;2024-01-30T09:50:21;102499.69;;;8.44;50.25
33697;BME280;20031;43.416;23.232;2024-01-30T09:52:47;102487.84;;;8.54;48.64
33697;BME280;20031;43.416;23.232;2024-01-30T09:55:13;102498.31;;;8.97;47.30
33697;BME280;20031;43.416;23.232;2024-01-30T09:57:39;102494.63;;;9.14;43.88
33697;BME280;20031;43.416;23.232;2024-01-30T10:00:05;102486.88;;;9.70;43.25
33697;BME280;20031;43.416;23.232;2024-01-30T10:02:34;102487.63;;;9.86;40.85
33697;BME280;20031;43.416;23.232;2024-01-30T10:05:00;102483.28;;;9.02;39.17
33697;BME280;20031;43.416;23.232;2024-01-30T10:07:25;102483.75;;;8.94;39.40
33697;BME280;20031;43.416;23.232;2024-01-30T10:09:52;102479.50;;;8.78;41.08
33697;BME280;20031;43.416;23.232;2024-01-30T10:12:18;102472.41;;;8.66;41.34
33697;BME280;20031;43.416;23.232;2024-01-30T10:14:44;102483.63;;;8.66;42.28
33697;BME280;20031;43.416;23.232;2024-01-30T10:17:10;102478.63;;;8.63;41.77
33697;BME280;20031;43.416;23.232;2024-01-30T10:19:37;102477.47;;;8.54;41.91
33697;BME280;20031;43.416;23.232;2024-01-30T10:22:03;102471.22;;;9.01;41.35
33697;BME280;20031;43.416;23.232;2024-01-30T10:24:29;102472.97;;;9.00;40.38
33697;BME280;20031;43.416;23.232;2024-01-30T10:26:55;102467.31;;;8.64;40.83
33697;BME280;20031;43.416;23.232;2024-01-30T10:29:21;102464.03;;;8.32;41.65
33697;BME280;20031;43.416;23.232;2024-01-30T10:32:06;102461.88;;;8.54;43.08
33697;BME280;20031;43.416;23.232;2024-01-30T10:34:32;102455.50;;;8.14;42.15
33697;BME280;20031;43.416;23.232;2024-01-30T10:37:17;102459.81;;;7.83;43.10
33697;BME280;20031;43.416;23.232;2024-01-30T10:39:44;102459.88;;;7.66;43.26
33697;BME280;20031;43.416;23.232;2024-01-30T10:42:17;102455.50;;;7.52;43.52
33697;BME280;20031;43.416;23.232;2024-01-30T10:47:39;102451.47;;;7.46;43.22
33697;BME280;20031;43.416;23.232;2024-01-30T10:50:05;102448.06;;;7.29;43.42
33697;BME280;20031;43.416;23.232;2024-01-30T10:52:32;102446.25;;;7.31;43.05
33697;BME280;20031;43.416;23.232;2024-01-30T10:54:59;102444.75;;;7.27;42.66
33697;BME280;20031;43.416;23.232;2024-01-30T10:57:26;102448.06;;;7.29;42.73
33697;BME280;20031;43.416;23.232;2024-01-30T10:59:56;102437.91;;;7.41;42.65
33697;BME280;20031;43.416;23.232;2024-01-30T11:02:23;102436.47;;;7.83;41.72
33697;BME280;20031;43.416;23.232;2024-01-30T11:04:50;102438.03;;;7.55;41.39
33697;BME280;20031;43.416;23.232;2024-01-30T11:07:24;102437.16;;;7.07;41.74
33697;BME280;20031;43.416;23.232;2024-01-30T11:09:51;102424.72;;;7.46;42.82
33697;BME280;20031;43.416;23.232;2024-01-30T11:12:22;102429.84;;;7.62;42.02
33697;BME280;20031;43.416;23.232;2024-01-30T11:14:48;102424.16;;;7.24;42.08
33697;BME280;20031;43.416;23.232;2024-01-30T11:17:13;102429.72;;;7.49;42.30
33697;BME280;20031;43.416;23.232;2024-01-30T11:19:41;102419.41;;;7.79;41.79
33697;BME280;20031;43.416;23.232;2024-01-30T11:22:07;102427.16;;;8.10;41.63
33697;BME280;20031;43.416;23.232;2024-01-30T11:24:40;102420.22;;;7.95;40.74
33697;BME280;20031;43.416;23.232;2024-01-30T11:27:09;102414.63;;;7.57;40.71
33697;BME280;20031;43.416;23.232;2024-01-30T11:29:37;102420.97;;;7.51;41.73
33697;BME280;20031;43.416;23.232;2024-01-30T11:32:03;102402.91;;;7.80;41.86
33697;BME280;20031;43.416;23.232;2024-01-30T11:34:29;102405.34;;;7.83;41.11
33697;BME280;20031;43.416;23.232;2024-01-30T11:37:07;102405.00;;;8.05;41.00
33697;BME280;20031;43.416;23.232;2024-01-30T11:39:35;102399.41;;;8.12;41.27
33697;BME280;20031;43.416;23.232;2024-01-30T11:42:03;102393.63;;;7.92;40.33
33697;BME280;20031;43.416;23.232;2024-01-30T11:44:30;102393.28;;;7.82;41.28
33697;BME280;20031;43.416;23.232;2024-01-30T11:46:56;102389.94;;;7.96;41.64
33697;BME280;20031;43.416;23.232;2024-01-30T11:49:23;102387.50;;;8.08;42.27
33697;BME280;20031;43.416;23.232;2024-01-30T11:51:48;102379.22;;;8.17;41.56
33697;BME280;20031;43.416;23.232;2024-01-30T11:54:15;102383.66;;;8.15;41.14
33697;BME280;20031;43.416;23.232;2024-01-30T11:56:42;102378.97;;;8.06;40.88
33697;BME280;20031;43.416;23.232;2024-01-30T11:59:08;102373.53;;;7.64;41.07
33697;BME280;20031;43.416;23.232;2024-01-30T12:01:33;102367.69;;;7.61;41.48
33697;BME280;20031;43.416;23.232;2024-01-30T12:03:59;102366.91;;;7.59;41.47
33697;BME280;20031;43.416;23.232;2024-01-30T12:06:25;102361.75;;;7.59;41.78
33697;BME280;20031;43.416;23.232;2024-01-30T12:08:57;102361.91;;;7.56;41.77
33697;BME280;20031;43.416;23.232;2024-01-30T12:11:24;102361.16;;;7.69;41.75
33697;BME280;20031;43.416;23.232;2024-01-30T12:13:51;102349.38;;;7.79;41.41
33697;BME280;20031;43.416;23.232;2024-01-30T12:16:16;102357.16;;;7.79;41.14
33697;BME280;20031;43.416;23.232;2024-01-30T12:18:42;102350.13;;;7.66;41.24
33697;BME280;20031;43.416;23.232;2024-01-30T12:21:07;102347.94;;;7.59;41.39
33697;BME280;20031;43.416;23.232;2024-01-30T12:23:35;102345.94;;;7.48;41.60
33697;BME280;20031;43.416;23.232;2024-01-30T12:26:01;102345.09;;;7.48;41.94
33697;BME280;20031;43.416;23.232;2024-01-30T12:28:29;102332.47;;;7.42;41.95
33697;BME280;20031;43.416;23.232;2024-01-30T12:31:01;102332.72;;;7.37;42.24
33697;BME280;20031;43.416;23.232;2024-01-30T12:33:27;102332.88;;;7.34;42.53
33697;BME280;20031;43.416;23.232;2024-01-30T12:35:53;102329.41;;;7.35;42.39
33697;BME280;20031;43.416;23.232;2024-01-30T12:38:19;102332.53;;;7.25;42.43
33697;BME280;20031;43.416;23.232;2024-01-30T12:40:44;102337.63;;;7.11;42.89
33697;BME280;20031;43.416;23.232;2024-01-30T12:43:10;102329.50;;;7.02;42.99
33697;BME280;20031;43.416;23.232;2024-01-30T12:45:36;102325.13;;;6.87;43.17
33697;BME280;20031;43.416;23.232;2024-01-30T12:48:02;102337.56;;;6.80;43.12